Time;durP1;ratioP1;P1;durP2;ratioP2;P2;SDS_P1;SDS_P2;PMS_P1;PMS_P2;Temp;Humidity;BMP_temperature;BMP_pressure;BME280_temperature;BME280_humidity;BME280_pressure;Samples;Min_cycle;Max_cycle;Signal;HPM_P1;HPM_P2
2022/12/06 00:01:22;;;;;;;23.33;13.17;;;3.90;99.90;;;;;;5007750;28;20298;-74
2022/12/06 00:03:52;;;;;;;23.07;12.13;;;3.90;99.90;;;;;;5006533;28;20210;-75
2022/12/06 00:06:20;;;;;;;19.33;12.23;;;4.00;99.90;;;;;;5020432;28;20237;-74
2022/12/06 00:08:47;;;;;;;20.17;12.93;;;4.00;99.90;;;;;;5006508;28;21031;-74
2022/12/06 00:11:17;;;;;;;22.57;12.27;;;3.90;99.90;;;;;;5008015;28;20226;-74
2022/12/06 00:13:43;;;;;;;17.63;11.47;;;3.90;99.90;;;;;;5009244;28;20214;-74
2022/12/06 00:16:15;;;;;;;21.23;11.70;;;3.80;99.90;;;;;;5005553;28;20224;-75
2022/12/06 00:18:42;;;;;;;20.87;12.33;;;3.90;99.90;;;;;;5008931;28;20210;-74
2022/12/06 00:21:27;;;;;;;19.57;11.50;;;3.80;99.90;;;;;;5007828;28;20190;-75
2022/12/06 00:23:55;;;;;;;19.87;11.83;;;3.90;99.90;;;;;;5012803;28;20221;-73
2022/12/06 00:26:22;;;;;;;19.57;11.20;;;3.80;99.90;;;;;;5010823;28;20735;-75
2022/12/06 00:28:50;;;;;;;19.43;11.30;;;3.90;99.90;;;;;;5007913;28;20268;-75
2022/12/06 00:31:18;;;;;;;21.97;12.20;;;3.90;99.90;;;;;;5008448;28;20574;-73
2022/12/06 00:33:44;;;;;;;19.43;12.33;;;3.90;99.90;;;;;;5011746;28;20322;-74
2022/12/06 00:36:16;;;;;;;18.67;11.67;;;3.80;99.90;;;;;;5011941;28;20235;-75
2022/12/06 00:38:41;;;;;;;18.80;12.10;;;3.80;99.90;;;;;;5010517;28;20220;-74
2022/12/06 00:41:19;;;;;;;18.20;10.83;;;3.90;99.90;;;;;;5007103;28;20214;-74
2022/12/06 00:43:45;;;;;;;22.13;12.20;;;3.90;99.90;;;;;;5009034;28;20302;-75
2022/12/06 00:46:16;;;;;;;18.03;12.60;;;4.00;99.90;;;;;;5010077;28;20220;-74
2022/12/06 00:48:42;;;;;;;20.60;12.90;;;4.00;99.90;;;;;;5023937;28;20210;-74
2022/12/06 00:51:08;;;;;;;20.47;12.83;;;3.80;99.90;;;;;;5008874;28;20717;-74
2022/12/06 00:53:33;;;;;;;23.27;13.83;;;3.90;99.90;;;;;;5010329;28;20214;-74
2022/12/06 00:55:59;;;;;;;20.27;12.50;;;3.80;99.90;;;;;;5004316;28;20226;-74
2022/12/06 00:58:25;;;;;;;22.10;13.27;;;3.80;99.90;;;;;;5009335;28;20201;-74
2022/12/06 01:00:50;;;;;;;21.40;13.20;;;3.80;99.90;;;;;;5007440;28;20210;-74
2022/12/06 01:03:16;;;;;;;23.43;13.43;;;3.90;99.90;;;;;;5006199;28;20241;-74
2022/12/06 01:05:47;;;;;;;22.30;13.67;;;3.90;99.90;;;;;;5008480;28;20208;-75
2022/12/06 01:08:14;;;;;;;22.10;13.87;;;3.90;99.90;;;;;;5010536;28;20234;-74
2022/12/06 01:10:40;;;;;;;24.17;14.60;;;3.80;99.90;;;;;;5008441;28;20238;-75
2022/12/06 01:13:07;;;;;;;22.27;14.70;;;3.80;99.90;;;;;;5010085;28;20220;-74
2022/12/06 01:15:35;;;;;;;21.73;13.50;;;3.80;99.90;;;;;;5007149;28;20214;-74
2022/12/06 01:18:01;;;;;;;22.93;14.50;;;3.80;99.90;;;;;;5011322;28;20175;-75
2022/12/06 01:20:26;;;;;;;21.90;14.10;;;3.80;99.90;;;;;;5007921;28;20197;-74
2022/12/06 01:22:52;;;;;;;21.87;14.00;;;3.80;99.90;;;;;;5002839;28;20207;-73
2022/12/06 01:25:18;;;;;;;23.30;14.20;;;3.80;99.90;;;;;;5008316;28;20219;-74
2022/12/06 01:27:43;;;;;;;23.00;13.70;;;3.70;99.90;;;;;;5009940;28;20220;-75
2022/12/06 01:30:09;;;;;;;20.80;13.60;;;3.80;99.90;;;;;;5019669;28;20216;-74
2022/12/06 01:32:35;;;;;;;25.07;14.30;;;3.70;99.90;;;;;;5011549;28;20211;-74
2022/12/06 01:35:01;;;;;;;22.33;14.37;;;3.70;99.90;;;;;;5006645;28;20654;-74
2022/12/06 01:37:27;;;;;;;21.43;14.27;;;3.70;99.90;;;;;;5007766;28;20212;-74
2022/12/06 01:39:52;;;;;;;20.53;13.57;;;3.70;99.90;;;;;;5021463;28;20220;-73
2022/12/06 01:42:18;;;;;;;20.93;13.17;;;3.70;99.90;;;;;;5007386;28;20266;-74
2022/12/06 01:44:49;;;;;;;19.57;13.10;;;3.60;99.90;;;;;;5005839;28;20173;-74
2022/12/06 01:47:37;;;;;;;21.73;12.40;;;3.70;99.90;;;;;;5024045;28;20710;-74
2022/12/06 01:50:11;;;;;;;21.27;13.83;;;3.70;99.90;;;;;;5007985;28;20226;-74
2022/12/06 01:53:01;;;;;;;22.07;13.53;;;3.70;99.90;;;;;;5007705;28;20886;-74
2022/12/06 01:55:31;;;;;;;19.47;12.20;;;3.60;99.90;;;;;;5006534;28;20208;-74
2022/12/06 01:58:01;;;;;;;21.40;12.30;;;3.60;99.90;;;;;;5004549;28;20229;-74
2022/12/06 02:00:27;;;;;;;18.67;10.97;;;3.50;99.90;;;;;;5009282;28;20169;-72
2022/12/06 02:02:56;;;;;;;20.93;11.87;;;3.50;99.90;;;;;;5004804;28;20263;-72
2022/12/06 02:05:24;;;;;;;21.53;11.90;;;3.50;99.90;;;;;;5007196;28;20200;-74
2022/12/06 02:07:50;;;;;;;18.73;10.90;;;3.50;99.90;;;;;;5007585;28;20232;-73
2022/12/06 02:10:17;;;;;;;16.80;11.47;;;3.50;99.90;;;;;;5005632;28;20208;-74
2022/12/06 02:12:42;;;;;;;19.90;12.43;;;3.60;99.90;;;;;;5008249;28;20211;-74
2022/12/06 02:15:09;;;;;;;19.47;12.30;;;3.70;99.90;;;;;;5022428;28;20237;-74
2022/12/06 02:17:55;;;;;;;20.53;12.43;;;3.60;99.90;;;;;;5004904;28;20716;-75
2022/12/06 02:20:38;;;;;;;20.73;12.77;;;3.70;99.90;;;;;;5010621;28;20214;-74
2022/12/06 02:23:38;;;;;;;23.10;13.00;;;3.60;99.90;;;;;;5006833;28;20213;-75
2022/12/06 02:26:31;;;;;;;18.50;12.23;;;3.60;99.90;;;;;;5009296;28;20216;-75
2022/12/06 02:29:41;;;;;;;23.27;14.80;;;3.60;99.90;;;;;;5004240;28;20266;-75
2022/12/06 02:32:13;;;;;;;24.23;14.17;;;3.50;99.90;;;;;;4986455;28;20301;-75
2022/12/06 02:34:56;;;;;;;22.90;13.13;;;3.50;99.90;;;;;;5007278;28;20210;-75
2022/12/06 02:37:31;;;;;;;24.17;14.57;;;3.50;99.90;;;;;;5004400;28;20266;-75
2022/12/06 02:40:03;;;;;;;23.40;13.93;;;3.40;99.90;;;;;;5020493;28;20249;-74
2022/12/06 02:42:38;;;;;;;25.00;14.57;;;3.50;99.90;;;;;;5006129;28;20234;-75
2022/12/06 02:45:11;;;;;;;25.27;15.03;;;3.50;99.90;;;;;;5002704;28;20206;-75
2022/12/06 02:47:37;;;;;;;27.17;14.67;;;3.40;99.90;;;;;;5009876;28;20303;-76
2022/12/06 02:50:09;;;;;;;24.57;13.77;;;3.50;99.90;;;;;;5005826;28;20288;-73
2022/12/06 02:52:40;;;;;;;24.97;15.47;;;3.50;99.90;;;;;;5009135;28;20296;-76
2022/12/06 02:55:07;;;;;;;24.90;14.40;;;3.60;99.90;;;;;;5006798;28;20280;-76
2022/12/06 02:57:40;;;;;;;29.10;15.90;;;3.60;99.90;;;;;;5004255;28;20583;-75
2022/12/06 03:00:33;;;;;;;27.40;14.73;;;3.50;99.90;;;;;;5006198;28;20189;-75
2022/12/06 03:03:17;;;;;;;23.17;14.27;;;3.60;99.90;;;;;;5005459;28;20217;-75
2022/12/06 03:06:01;;;;;;;25.50;14.47;;;3.50;99.90;;;;;;5021149;28;20240;-75
2022/12/06 03:08:58;;;;;;;30.00;13.87;;;3.50;99.90;;;;;;5016135;28;20620;-75
2022/12/06 03:11:34;;;;;;;26.43;14.97;;;3.50;99.90;;;;;;5003428;28;20237;-75
2022/12/06 03:14:05;;;;;;;23.13;13.77;;;3.40;99.90;;;;;;5007953;28;20255;-75
2022/12/06 03:17:07;;;;;;;21.70;14.13;;;3.40;99.90;;;;;;5005797;28;20277;-75
2022/12/06 03:19:35;;;;;;;20.00;14.07;;;3.50;99.90;;;;;;5007299;28;20206;-75
2022/12/06 03:22:06;;;;;;;26.83;15.60;;;3.50;99.90;;;;;;5021542;28;20220;-75
2022/12/06 03:24:36;;;;;;;25.60;14.13;;;3.50;99.90;;;;;;5024018;28;20630;-75
2022/12/06 03:27:08;;;;;;;25.03;13.80;;;3.40;99.90;;;;;;5003911;28;20195;-75
2022/12/06 03:29:38;;;;;;;23.40;13.67;;;3.50;99.90;;;;;;5006706;28;20201;-75
2022/12/06 03:32:06;;;;;;;22.20;13.80;;;3.40;99.90;;;;;;5001567;28;20286;-75
2022/12/06 03:34:38;;;;;;;21.63;13.67;;;3.50;99.90;;;;;;5008695;28;20230;-75
2022/12/06 03:37:06;;;;;;;20.30;12.50;;;3.50;99.90;;;;;;5005169;28;20268;-75
2022/12/06 03:39:42;;;;;;;20.80;11.93;;;3.40;99.90;;;;;;5011466;28;20785;-74
2022/12/06 03:42:08;;;;;;;16.60;9.73;;;3.40;99.90;;;;;;5007768;28;20180;-75
2022/12/06 03:44:35;;;;;;;16.83;10.70;;;3.40;99.90;;;;;;5004168;28;20214;-75
2022/12/06 03:47:17;;;;;;;19.20;11.23;;;3.40;99.90;;;;;;5003053;28;20212;-76
2022/12/06 03:49:47;;;;;;;17.20;9.83;;;3.30;99.90;;;;;;5005555;28;20262;-74
2022/12/06 03:52:12;;;;;;;16.37;10.50;;;3.30;99.90;;;;;;5002714;28;20221;-76
2022/12/06 03:54:39;;;;;;;17.53;10.97;;;3.30;99.90;;;;;;5005197;28;20214;-75
2022/12/06 03:57:05;;;;;;;18.70;10.33;;;3.20;99.90;;;;;;5004203;28;20271;-75
2022/12/06 03:59:31;;;;;;;18.47;10.17;;;3.30;99.90;;;;;;5003087;28;20206;-74
2022/12/06 04:01:56;;;;;;;16.03;10.40;;;3.30;99.90;;;;;;5006617;28;20256;-75
2022/12/06 04:04:23;;;;;;;16.43;9.40;;;3.30;99.90;;;;;;5005219;28;20201;-74
2022/12/06 04:06:50;;;;;;;17.00;9.97;;;3.20;99.90;;;;;;5017785;28;20738;-75
2022/12/06 04:12:00;;;;;;;15.90;9.47;;;3.20;99.90;;;;;;5002610;28;20299;-75
2022/12/06 04:14:31;;;;;;;18.43;9.90;;;3.20;99.90;;;;;;5010036;28;20269;-72
2022/12/06 04:19:41;;;;;;;13.67;9.17;;;3.30;99.90;;;;;;5045674;28;20215;-72
2022/12/06 04:24:51;;;;;;;15.10;9.63;;;3.20;99.90;;;;;;5040440;28;20297;-72
2022/12/06 04:40:58;;;;;;;13.43;7.97;;;3.10;99.90;;;;;;5040943;28;20288;-74
2022/12/06 04:43:41;;;;;;;11.77;8.10;;;3.10;99.90;;;;;;5042537;28;20296;-72
2022/12/06 04:46:09;;;;;;;12.40;7.53;;;3.10;99.90;;;;;;5042072;28;20204;-71
2022/12/06 04:48:34;;;;;;;15.70;8.90;;;3.10;99.90;;;;;;5041436;28;20207;-73
2022/12/06 04:51:00;;;;;;;13.30;8.47;;;3.10;99.90;;;;;;5042340;28;20681;-72
2022/12/06 04:53:26;;;;;;;15.40;8.13;;;3.00;99.90;;;;;;5040397;28;20197;-72
2022/12/06 04:55:51;;;;;;;12.43;8.10;;;3.00;99.90;;;;;;5046072;28;20199;-72
2022/12/06 04:58:17;;;;;;;11.07;6.93;;;3.00;99.90;;;;;;5039639;28;20293;-72
2022/12/06 05:00:43;;;;;;;13.23;7.65;;;3.00;99.90;;;;;;5040395;28;20550;-72
2022/12/06 05:03:13;;;;;;;11.20;7.27;;;3.10;99.90;;;;;;5040520;28;20212;-72
2022/12/06 05:05:39;;;;;;;9.07;6.17;;;3.00;99.90;;;;;;5043507;28;20183;-72
2022/12/06 05:08:05;;;;;;;9.97;6.77;;;3.00;99.90;;;;;;5038645;28;20212;-72
2022/12/06 05:10:31;;;;;;;10.00;6.23;;;3.00;99.90;;;;;;5044004;28;20578;-72
2022/12/06 05:12:57;;;;;;;10.60;7.17;;;3.00;99.90;;;;;;5041646;28;20654;-71
2022/12/06 05:15:23;;;;;;;10.43;7.23;;;3.00;99.90;;;;;;5039776;28;20179;-73
2022/12/06 05:17:48;;;;;;;10.47;6.60;;;3.00;99.90;;;;;;5044380;28;20621;-73
2022/12/06 05:20:14;;;;;;;11.83;7.00;;;3.10;99.90;;;;;;5043999;28;20200;-72
2022/12/06 05:22:40;;;;;;;11.10;6.80;;;3.10;99.90;;;;;;5050183;28;20210;-74
2022/12/06 05:25:06;;;;;;;10.60;6.80;;;3.00;99.90;;;;;;5047655;28;20249;-71
2022/12/06 05:27:31;;;;;;;13.07;7.17;;;3.00;99.90;;;;;;5043165;28;20216;-73
2022/12/06 05:29:57;;;;;;;10.40;7.20;;;3.00;99.90;;;;;;5046283;28;20266;-73
2022/12/06 05:32:23;;;;;;;10.73;6.53;;;3.00;99.90;;;;;;5046493;28;20306;-72
2022/12/06 05:34:49;;;;;;;11.17;7.47;;;3.00;99.90;;;;;;5040449;28;20224;-72
2022/12/06 05:37:15;;;;;;;11.80;7.10;;;3.10;99.90;;;;;;5047512;28;20214;-72
2022/12/06 05:39:41;;;;;;;14.47;8.27;;;3.10;99.90;;;;;;5042075;28;20574;-72
2022/12/06 05:42:06;;;;;;;9.43;6.83;;;3.00;99.90;;;;;;5045878;28;20259;-72
2022/12/06 05:44:32;;;;;;;11.73;7.13;;;3.00;99.90;;;;;;5047987;28;20212;-75
2022/12/06 05:46:58;;;;;;;13.37;7.93;;;3.00;99.90;;;;;;5042329;28;20265;-72
2022/12/06 05:49:23;;;;;;;9.97;7.23;;;3.10;99.90;;;;;;5049053;28;20559;-73
2022/12/06 05:51:49;;;;;;;11.97;7.10;;;3.10;99.90;;;;;;5043559;28;20253;-73
2022/12/06 05:54:14;;;;;;;11.57;7.00;;;3.00;99.90;;;;;;5040757;28;20626;-72
2022/12/06 05:56:40;;;;;;;12.30;8.07;;;3.00;99.90;;;;;;5050268;28;20200;-73
2022/12/06 05:59:06;;;;;;;11.40;6.87;;;3.00;99.90;;;;;;5044216;28;20201;-72
2022/12/06 06:01:31;;;;;;;11.70;7.30;;;3.00;99.90;;;;;;5043240;28;20214;-75
2022/12/06 06:03:57;;;;;;;11.03;6.77;;;2.90;99.90;;;;;;5046711;28;20212;-72
2022/12/06 06:06:22;;;;;;;12.13;7.73;;;3.00;99.90;;;;;;5045409;28;20488;-72
2022/12/06 06:08:48;;;;;;;12.50;8.40;;;3.00;99.90;;;;;;5038592;28;20176;-73
2022/12/06 06:11:14;;;;;;;11.77;7.17;;;3.00;99.90;;;;;;5045942;28;20698;-72
2022/12/06 06:13:40;;;;;;;13.80;7.73;;;3.10;99.90;;;;;;5042928;28;20234;-72
2022/12/06 06:16:06;;;;;;;15.10;8.03;;;3.10;99.90;;;;;;5047448;28;20218;-72
2022/12/06 06:18:31;;;;;;;11.23;7.50;;;3.10;99.90;;;;;;5048332;28;20217;-72
2022/12/06 06:20:59;;;;;;;13.13;8.53;;;3.10;99.90;;;;;;5039506;28;20241;-72
2022/12/06 06:23:26;;;;;;;14.33;8.43;;;3.00;99.90;;;;;;5044753;28;20204;-74
2022/12/06 06:25:51;;;;;;;14.30;8.03;;;3.00;99.90;;;;;;5046036;28;20204;-72
2022/12/06 06:28:17;;;;;;;13.17;8.90;;;3.00;99.90;;;;;;5043113;28;20573;-74
2022/12/06 06:30:44;;;;;;;12.03;8.33;;;3.00;99.90;;;;;;5043786;28;20263;-74
2022/12/06 06:33:09;;;;;;;11.37;8.70;;;3.10;99.90;;;;;;5039575;28;20173;-77
2022/12/06 06:35:35;;;;;;;11.30;7.57;;;3.10;99.90;;;;;;5043611;28;20164;-72
2022/12/06 06:38:01;;;;;;;14.50;8.23;;;3.10;99.90;;;;;;5042748;28;20245;-72
2022/12/06 06:40:28;;;;;;;12.53;8.20;;;3.10;99.90;;;;;;5048147;28;20290;-72
2022/12/06 06:42:54;;;;;;;11.97;8.00;;;3.00;99.90;;;;;;5045295;28;20408;-72
2022/12/06 06:45:20;;;;;;;12.53;7.77;;;3.00;99.90;;;;;;5046210;28;20178;-72
2022/12/06 06:47:45;;;;;;;13.20;8.60;;;3.00;99.90;;;;;;5043849;28;20534;-73
2022/12/06 06:50:11;;;;;;;12.73;8.17;;;3.00;99.90;;;;;;5041964;28;20212;-72
2022/12/06 06:52:37;;;;;;;13.53;8.07;;;3.00;99.90;;;;;;5043639;28;20246;-73
2022/12/06 06:55:03;;;;;;;12.90;8.40;;;3.00;99.90;;;;;;5040737;28;20292;-73
2022/12/06 06:57:28;;;;;;;8.80;6.57;;;3.00;99.90;;;;;;5049165;28;20284;-72
2022/12/06 06:59:55;;;;;;;10.17;7.13;;;3.00;99.90;;;;;;5041930;28;20617;-72
2022/12/06 07:02:21;;;;;;;11.23;7.77;;;3.00;99.90;;;;;;5045490;28;20629;-72
2022/12/06 07:04:48;;;;;;;11.57;8.00;;;3.10;99.90;;;;;;5044680;28;20203;-72
2022/12/06 07:07:14;;;;;;;10.47;7.13;;;3.00;99.90;;;;;;5043476;28;20249;-73
2022/12/06 07:09:40;;;;;;;10.17;6.70;;;3.10;99.90;;;;;;5045106;28;20218;-72
2022/12/06 07:12:06;;;;;;;8.93;6.47;;;3.10;99.90;;;;;;5043626;28;20228;-73
2022/12/06 07:14:32;;;;;;;8.83;6.77;;;3.10;99.90;;;;;;5042475;28;20636;-72
2022/12/06 07:16:57;;;;;;;12.10;7.17;;;3.10;99.90;;;;;;5046282;28;20212;-72
2022/12/06 07:19:23;;;;;;;9.63;6.37;;;3.10;99.90;;;;;;5044928;28;20230;-73
2022/12/06 07:21:49;;;;;;;11.23;7.13;;;3.10;99.90;;;;;;5039552;28;20556;-74
2022/12/06 07:24:15;;;;;;;10.60;6.70;;;3.10;99.90;;;;;;5046983;28;20199;-74
2022/12/06 07:26:40;;;;;;;11.03;6.30;;;3.10;99.90;;;;;;5044985;28;20692;-72
2022/12/06 07:29:06;;;;;;;10.77;6.50;;;3.10;99.90;;;;;;5038536;28;20202;-73
2022/12/06 07:31:32;;;;;;;11.60;6.60;;;3.10;99.90;;;;;;5046451;28;20213;-72
2022/12/06 07:34:00;;;;;;;9.17;6.57;;;3.10;99.90;;;;;;5040085;28;20786;-73
2022/12/06 07:36:29;;;;;;;10.93;6.23;;;3.20;99.90;;;;;;5041825;28;20216;-74
2022/12/06 07:38:56;;;;;;;10.67;6.20;;;3.20;99.90;;;;;;5044669;28;20178;-73
2022/12/06 07:46:55;;;;;;;9.73;6.77;;;3.20;99.90;;;;;;5045624;28;20238;-73
2022/12/06 07:49:21;;;;;;;9.53;6.73;;;3.10;99.90;;;;;;5043897;28;20640;-72
2022/12/06 07:51:47;;;;;;;9.77;7.17;;;3.10;99.90;;;;;;5046046;28;20269;-72
2022/12/06 07:54:14;;;;;;;10.40;6.70;;;3.20;99.90;;;;;;5042980;28;20202;-73
2022/12/06 07:56:41;;;;;;;8.07;6.30;;;3.20;99.90;;;;;;5042437;28;20208;-72
2022/12/06 07:59:06;;;;;;;12.27;6.90;;;3.10;99.90;;;;;;5043329;28;20212;-72
2022/12/06 08:01:32;;;;;;;10.17;7.30;;;3.10;99.90;;;;;;5041579;28;20654;-72
2022/12/06 08:03:59;;;;;;;11.90;7.03;;;3.10;99.90;;;;;;5044572;28;20200;-72
2022/12/06 08:06:25;;;;;;;10.33;7.10;;;3.20;99.90;;;;;;5051938;28;20195;-73
2022/12/06 08:08:51;;;;;;;10.77;7.47;;;3.30;99.90;;;;;;5043708;28;20178;-72
2022/12/06 08:11:16;;;;;;;10.77;7.07;;;3.30;99.90;;;;;;5049511;28;20207;-73
2022/12/06 08:13:42;;;;;;;10.70;6.87;;;3.10;99.90;;;;;;5047247;28;20620;-75
2022/12/06 08:16:11;;;;;;;9.57;6.40;;;3.20;99.90;;;;;;5042242;28;20216;-72
2022/12/06 08:18:38;;;;;;;8.83;6.37;;;3.10;99.90;;;;;;5048544;28;20223;-72
2022/12/06 08:21:04;;;;;;;10.17;6.13;;;3.20;99.90;;;;;;5045049;28;20172;-72
2022/12/06 08:23:30;;;;;;;11.87;6.40;;;3.20;99.90;;;;;;5045669;28;20243;-72
2022/12/06 08:25:57;;;;;;;9.30;6.10;;;3.30;99.90;;;;;;5048163;28;20633;-73
2022/12/06 08:28:22;;;;;;;8.70;5.97;;;3.30;99.90;;;;;;5046800;28;20748;-72
2022/12/06 08:30:48;;;;;;;10.07;6.27;;;3.20;99.90;;;;;;5045585;28;20311;-71
2022/12/06 08:33:13;;;;;;;8.50;5.53;;;3.30;99.90;;;;;;5048362;28;20177;-73
2022/12/06 08:35:39;;;;;;;9.17;5.37;;;3.30;99.90;;;;;;5047107;28;20234;-72
2022/12/06 08:38:05;;;;;;;9.97;5.77;;;3.30;99.90;;;;;;5050216;28;20298;-72
2022/12/06 08:40:30;;;;;;;6.47;4.60;;;3.30;99.90;;;;;;5047665;28;20203;-73
2022/12/06 08:42:56;;;;;;;9.00;5.60;;;3.30;99.90;;;;;;5042157;28;20214;-73
2022/12/06 08:45:21;;;;;;;8.27;5.63;;;3.20;99.90;;;;;;5050434;28;20182;-72
2022/12/06 08:47:47;;;;;;;7.93;5.30;;;3.20;99.90;;;;;;5048598;28;20266;-72
2022/12/06 08:50:12;;;;;;;8.63;5.27;;;3.20;99.90;;;;;;5043567;28;20217;-73
2022/12/06 08:52:38;;;;;;;9.53;5.20;;;3.30;99.90;;;;;;5049447;28;20215;-72
2022/12/06 08:55:04;;;;;;;7.83;5.10;;;3.20;99.90;;;;;;5044459;28;20218;-72
2022/12/06 08:57:31;;;;;;;7.83;5.27;;;3.20;99.90;;;;;;5044554;28;20622;-72
2022/12/06 08:59:57;;;;;;;7.80;5.17;;;3.20;99.90;;;;;;5045335;28;20176;-75
2022/12/06 09:02:23;;;;;;;8.37;5.23;;;3.20;99.90;;;;;;5051134;28;20224;-72
2022/12/06 09:04:51;;;;;;;8.23;5.17;;;3.30;99.90;;;;;;5046986;28;20233;-72
2022/12/06 09:07:17;;;;;;;9.27;5.33;;;3.30;99.90;;;;;;5047716;28;20204;-72
2022/12/06 09:09:45;;;;;;;7.70;5.27;;;3.30;99.90;;;;;;5042049;28;20221;-71
2022/12/06 09:12:11;;;;;;;6.33;4.90;;;3.20;99.90;;;;;;5048637;28;20278;-74
2022/12/06 09:14:37;;;;;;;7.90;5.03;;;3.20;99.90;;;;;;5045715;28;20506;-72
2022/12/06 09:17:03;;;;;;;7.30;5.60;;;3.30;99.90;;;;;;5045563;28;20209;-72
2022/12/06 09:19:28;;;;;;;8.13;5.20;;;3.20;99.90;;;;;;5048821;28;21221;-72
2022/12/06 09:21:54;;;;;;;7.67;5.17;;;3.20;99.90;;;;;;5041966;28;20754;-71
2022/12/06 09:24:19;;;;;;;8.43;5.00;;;3.30;99.90;;;;;;5047672;28;20171;-72
2022/12/06 09:26:46;;;;;;;10.37;5.73;;;3.30;99.90;;;;;;5050703;28;20592;-73
2022/12/06 09:29:13;;;;;;;7.03;5.07;;;3.30;99.90;;;;;;5044332;28;20622;-72
2022/12/06 09:31:39;;;;;;;7.70;5.03;;;3.30;99.90;;;;;;5046711;28;20707;-72
2022/12/06 09:34:08;;;;;;;10.07;5.47;;;3.20;99.90;;;;;;5045684;28;20200;-72
2022/12/06 09:36:50;;;;;;;8.07;5.10;;;3.30;99.90;;;;;;5043155;28;20212;-75
2022/12/06 09:39:25;;;;;;;5.57;4.47;;;3.20;99.90;;;;;;5047114;28;20200;-74
2022/12/06 09:42:17;;;;;;;7.50;4.83;;;3.30;99.90;;;;;;5044515;28;20258;-73
2022/12/06 09:45:13;;;;;;;8.60;5.67;;;3.30;99.90;;;;;;5047341;28;20227;-72
2022/12/06 09:48:07;;;;;;;7.50;4.47;;;3.30;99.90;;;;;;5039386;28;20211;-73
2022/12/06 09:50:59;;;;;;;6.87;4.73;;;3.30;99.90;;;;;;5046630;28;20568;-75
2022/12/06 09:53:28;;;;;;;7.57;4.60;;;3.40;99.90;;;;;;5042871;28;20352;-73
2022/12/06 09:56:09;;;;;;;8.43;5.10;;;3.30;99.90;;;;;;5042286;28;20204;-73
2022/12/06 09:58:48;;;;;;;8.20;4.63;;;3.30;99.90;;;;;;5048756;28;20295;-76
2022/12/06 10:01:35;;;;;;;10.30;5.47;;;3.30;99.90;;;;;;5045800;28;20212;-73
2022/12/06 10:04:08;;;;;;;7.63;5.20;;;3.40;99.90;;;;;;5041406;28;20229;-73
2022/12/06 10:07:01;;;;;;;10.27;5.43;;;3.40;99.90;;;;;;5048873;28;20219;-74
2022/12/06 10:10:08;;;;;;;7.50;5.47;;;3.40;99.90;;;;;;5009247;28;20197;-74
2022/12/06 10:13:07;;;;;;;7.20;4.80;;;3.30;99.90;;;;;;5043983;28;20207;-72
2022/12/06 10:15:42;;;;;;;7.20;4.83;;;3.20;99.90;;;;;;5041452;28;20205;-72
2022/12/06 10:18:23;;;;;;;7.07;5.00;;;3.20;99.90;;;;;;5051004;28;20214;-73
2022/12/06 10:21:09;;;;;;;8.53;4.73;;;3.20;99.90;;;;;;5044403;28;20172;-72
2022/12/06 10:24:05;;;;;;;7.13;4.63;;;3.30;99.90;;;;;;5040343;28;20197;-72
2022/12/06 10:26:51;;;;;;;9.10;5.13;;;3.30;99.90;;;;;;5044156;28;20223;-72
2022/12/06 10:29:22;;;;;;;6.80;4.90;;;3.40;99.90;;;;;;5038783;28;20208;-72
2022/12/06 10:32:05;;;;;;;5.60;4.83;;;3.30;99.90;;;;;;5042687;28;20206;-72
2022/12/06 10:34:31;;;;;;;8.00;5.23;;;3.30;99.90;;;;;;5048337;28;20200;-71
2022/12/06 10:37:32;;;;;;;9.60;5.10;;;3.20;99.90;;;;;;5040795;28;20265;-72
2022/12/06 10:40:13;;;;;;;8.57;5.20;;;3.30;99.90;;;;;;5036354;28;20201;-72
2022/12/06 10:42:50;;;;;;;7.20;5.07;;;3.40;99.90;;;;;;5043397;28;20202;-72
2022/12/06 10:48:32;;;;;;;10.03;5.70;;;3.30;99.90;;;;;;5046427;28;20191;-74
2022/12/06 10:51:03;;;;;;;8.07;5.60;;;3.40;99.90;;;;;;5039773;28;20196;-72
2022/12/06 10:53:33;;;;;;;9.73;6.03;;;3.40;99.90;;;;;;5049006;28;20204;-72
2022/12/06 10:56:22;;;;;;;9.90;5.70;;;3.40;99.90;;;;;;5042760;28;20551;-73
2022/12/06 10:58:58;;;;;;;9.67;5.73;;;3.40;99.90;;;;;;5041183;28;20201;-71
2022/12/06 11:01:33;;;;;;;11.50;6.07;;;3.40;99.90;;;;;;5046215;28;20207;-72
2022/12/06 11:04:00;;;;;;;8.97;5.70;;;3.50;99.90;;;;;;5040649;28;20209;-72
2022/12/06 11:06:34;;;;;;;9.07;5.90;;;3.50;99.90;;;;;;5045008;28;20214;-72
2022/12/06 11:09:15;;;;;;;11.93;6.70;;;3.50;99.90;;;;;;5043567;28;20252;-73
2022/12/06 11:11:42;;;;;;;9.73;6.70;;;3.40;99.90;;;;;;5043270;28;20643;-72
2022/12/06 11:14:17;;;;;;;10.63;6.70;;;3.40;99.90;;;;;;5046234;28;20301;-73
2022/12/06 11:16:53;;;;;;;10.50;6.53;;;3.50;99.90;;;;;;5044491;28;20293;-73
2022/12/06 11:19:35;;;;;;;9.57;6.17;;;3.50;99.90;;;;;;5044414;28;20201;-72
2022/12/06 11:22:22;;;;;;;9.27;6.40;;;3.50;99.90;;;;;;5044161;28;20205;-72
2022/12/06 11:24:59;;;;;;;10.23;6.10;;;3.40;99.90;;;;;;5043176;28;20552;-72
2022/12/06 11:27:35;;;;;;;9.70;6.07;;;3.50;99.90;;;;;;5045990;28;20198;-72
2022/12/06 11:30:02;;;;;;;11.50;6.57;;;3.50;99.90;;;;;;5040150;28;20173;-72
2022/12/06 11:32:28;;;;;;;10.17;6.33;;;3.50;99.90;;;;;;5040703;28;20203;-72
2022/12/06 11:35:00;;;;;;;9.87;6.70;;;3.50;99.90;;;;;;5044720;28;20209;-72
2022/12/06 11:37:29;;;;;;;11.83;7.03;;;3.50;99.90;;;;;;5044320;28;20209;-72
2022/12/06 11:40:14;;;;;;;12.53;6.83;;;3.60;99.90;;;;;;5048245;28;20206;-72
2022/12/06 11:42:39;;;;;;;11.87;6.70;;;3.60;99.90;;;;;;5047041;28;20566;-72
2022/12/06 11:45:34;;;;;;;11.40;6.70;;;3.50;99.90;;;;;;5045416;28;20171;-72
2022/12/06 11:48:09;;;;;;;10.77;6.37;;;3.50;99.90;;;;;;5047050;28;20206;-71
2022/12/06 11:50:36;;;;;;;11.37;6.93;;;3.50;99.90;;;;;;5045295;28;20236;-72
2022/12/06 11:53:07;;;;;;;10.23;6.27;;;3.50;99.90;;;;;;5046604;28;20289;-72
2022/12/06 11:55:41;;;;;;;13.73;6.53;;;3.50;99.90;;;;;;5050190;28;20194;-72
2022/12/06 11:58:18;;;;;;;13.80;5.83;;;3.50;99.90;;;;;;5049262;28;20209;-72
2022/12/06 12:01:03;;;;;;;9.90;5.87;;;3.50;99.90;;;;;;5043053;28;20206;-72
2022/12/06 12:03:32;;;;;;;8.40;6.13;;;3.50;99.90;;;;;;5047684;28;20212;-72
2022/12/06 12:06:22;;;;;;;8.90;5.43;;;3.40;99.90;;;;;;5044966;28;20166;-72
2022/12/06 12:09:17;;;;;;;7.03;5.47;;;3.50;99.90;;;;;;5047712;28;20215;-73
2022/12/06 12:11:52;;;;;;;7.10;5.77;;;3.50;99.90;;;;;;5042675;28;20216;-72
2022/12/06 12:14:26;;;;;;;6.60;5.07;;;3.50;99.90;;;;;;5048369;28;20249;-72
2022/12/06 12:16:57;;;;;;;7.50;5.50;;;3.40;99.90;;;;;;5047214;28;20678;-71
2022/12/06 12:19:39;;;;;;;8.97;5.10;;;3.50;99.90;;;;;;5044866;28;20209;-72
2022/12/06 12:22:23;;;;;;;7.60;4.90;;;3.50;99.90;;;;;;5047203;28;20205;-72
2022/12/06 12:24:58;;;;;;;6.93;5.07;;;3.40;99.90;;;;;;5048330;28;20257;-72
2022/12/06 12:27:39;;;;;;;6.03;4.10;;;3.30;99.90;;;;;;5048320;28;20246;-72
2022/12/06 12:30:23;;;;;;;6.63;4.83;;;3.40;99.90;;;;;;5045818;28;20180;-72
2022/12/06 12:32:51;;;;;;;4.77;3.80;;;3.30;99.90;;;;;;5046128;28;20239;-72
2022/12/06 12:35:20;;;;;;;5.57;4.13;;;3.40;99.90;;;;;;5049433;28;20200;-72
2022/12/06 12:37:50;;;;;;;6.30;4.37;;;3.30;99.90;;;;;;5044727;28;20507;-72
2022/12/06 12:40:28;;;;;;;11.27;6.60;;;3.30;99.90;;;;;;5047108;28;20225;-73
2022/12/06 12:43:12;;;;;;;5.00;4.07;;;3.40;99.90;;;;;;5046771;28;20199;-73
2022/12/06 12:45:39;;;;;;;6.87;4.17;;;3.50;99.90;;;;;;5044592;28;20754;-72
2022/12/06 12:48:26;;;;;;;4.90;3.73;;;3.50;99.90;;;;;;5048242;28;20186;-71
2022/12/06 12:50:53;;;;;;;6.33;4.33;;;3.50;99.90;;;;;;5044994;28;20197;-72
2022/12/06 12:53:40;;;;;;;4.97;3.93;;;3.50;99.90;;;;;;5050529;28;20297;-73
2022/12/06 12:56:11;;;;;;;5.87;4.57;;;3.60;99.90;;;;;;5047515;28;20563;-72
2022/12/06 12:58:37;;;;;;;5.53;4.13;;;3.50;99.90;;;;;;5043096;28;20209;-72
2022/12/06 13:01:37;;;;;;;5.17;4.10;;;3.50;99.90;;;;;;5047982;28;20205;-73
2022/12/06 13:04:26;;;;;;;4.50;3.87;;;3.50;99.90;;;;;;5045322;28;20306;-72
2022/12/06 13:07:24;;;;;;;4.43;3.80;;;3.50;99.90;;;;;;5035583;28;20219;-72
2022/12/06 13:10:00;;;;;;;8.33;4.63;;;3.50;99.90;;;;;;5010928;28;20569;-73
2022/12/06 13:12:52;;;;;;;5.43;4.23;;;3.50;99.90;;;;;;5044332;28;20212;-72
2022/12/06 13:15:24;;;;;;;5.57;4.23;;;3.40;99.90;;;;;;5050883;28;20173;-72
2022/12/06 13:17:59;;;;;;;4.93;4.10;;;3.50;99.90;;;;;;5047148;28;20250;-73
2022/12/06 13:20:31;;;;;;;5.03;3.97;;;3.50;99.90;;;;;;5049986;28;20193;-71
2022/12/06 13:23:07;;;;;;;5.87;4.37;;;3.50;99.90;;;;;;5045641;28;20259;-71
2022/12/06 13:25:32;;;;;;;6.13;4.13;;;3.50;99.90;;;;;;5047359;28;20575;-74
2022/12/06 13:28:02;;;;;;;6.37;5.00;;;3.40;99.90;;;;;;5038896;28;20266;-72
2022/12/06 13:30:30;;;;;;;5.77;4.40;;;3.50;99.90;;;;;;5046915;28;20169;-73
2022/12/06 13:33:05;;;;;;;6.50;4.10;;;3.50;99.90;;;;;;5041743;28;20198;-71
2022/12/06 13:35:41;;;;;;;8.67;5.30;;;3.50;99.90;;;;;;5049817;28;20212;-72
2022/12/06 13:38:16;;;;;;;8.73;4.60;;;3.50;99.90;;;;;;5044291;28;20214;-72
2022/12/06 13:40:50;;;;;;;6.00;4.53;;;3.50;99.90;;;;;;5043259;28;20207;-73